createdAt,value
2019-02-21T00:01:05.719Z,5.40
2019-02-21T00:03:36.175Z,5.40
2019-02-21T00:06:07.091Z,5.40
2019-02-21T00:08:37.941Z,5.30
2019-02-21T00:11:08.515Z,5.30
2019-02-21T00:13:39.089Z,5.30
2019-02-21T00:16:09.814Z,5.20
2019-02-21T00:18:40.702Z,5.20
2019-02-21T00:21:11.982Z,5.10
2019-02-21T00:23:42.229Z,5.10
2019-02-21T00:26:12.912Z,5.10
2019-02-21T00:28:43.169Z,5.00
2019-02-21T00:31:13.524Z,5.00
2019-02-21T00:33:44.112Z,5.00
2019-02-21T00:36:14.826Z,5.00
2019-02-21T00:38:45.318Z,5.00
2019-02-21T00:41:16.303Z,5.00
2019-02-21T00:43:46.915Z,5.00
2019-02-21T00:46:17.771Z,5.00
2019-02-21T00:48:48.994Z,5.00
2019-02-21T00:51:19.129Z,5.00
2019-02-21T00:53:49.485Z,5.00
2019-02-21T00:56:19.866Z,5.00
2019-02-21T00:58:50.475Z,5.00
2019-02-21T01:01:21.150Z,5.00
2019-02-21T01:03:50.881Z,5.00
2019-02-21T01:06:22.443Z,5.00
2019-02-21T01:08:52.278Z,5.00
2019-02-21T01:11:22.184Z,5.00
2019-02-21T01:13:52.907Z,5.00
2019-02-21T01:16:23.691Z,5.00
2019-02-21T01:18:54.219Z,4.90
2019-02-21T01:21:25.291Z,4.90
2019-02-21T01:23:56.449Z,4.90
2019-02-21T01:26:27.128Z,4.90
2019-02-21T01:28:58.118Z,4.90
2019-02-21T01:31:29.465Z,4.80
2019-02-21T01:34:01.301Z,4.80
2019-02-21T01:36:32.470Z,4.80
2019-02-21T01:39:03.177Z,4.70
2019-02-21T01:41:33.674Z,4.70
2019-02-21T01:44:04.734Z,4.70
2019-02-21T01:46:35.190Z,4.60
2019-02-21T01:49:05.159Z,4.60
2019-02-21T01:51:36.310Z,4.50
2019-02-21T01:54:06.530Z,4.40
2019-02-21T01:56:36.467Z,4.40
2019-02-21T01:59:06.938Z,4.40
2019-02-21T02:01:37.361Z,4.40
2019-02-21T02:04:07.941Z,4.40
2019-02-21T02:06:38.182Z,4.40
2019-02-21T02:09:11.829Z,4.40
2019-02-21T02:11:42.866Z,4.30
2019-02-21T02:14:13.305Z,4.30
2019-02-21T02:16:43.890Z,4.20
2019-02-21T02:19:14.964Z,4.20
2019-02-21T02:21:45.186Z,4.20
2019-02-21T02:24:15.023Z,4.20
2019-02-21T02:26:45.428Z,4.20
2019-02-21T02:29:15.598Z,4.20
2019-02-21T02:31:46.297Z,4.20
2019-02-21T02:34:17.655Z,4.10
2019-02-21T02:36:48.391Z,4.10
2019-02-21T02:39:18.726Z,4.10
2019-02-21T02:41:49.735Z,4.10
2019-02-21T02:44:19.766Z,4.10
2019-02-21T02:46:50.954Z,4.10
2019-02-21T02:49:21.440Z,4.00
2019-02-21T02:51:51.277Z,4.00
2019-02-21T02:54:21.746Z,3.90
2019-02-21T02:56:53.338Z,3.90
2019-02-21T02:59:23.909Z,3.90
2019-02-21T03:01:54.689Z,3.90
2019-02-21T03:04:25.634Z,3.90
2019-02-21T03:06:55.890Z,4.00
2019-02-21T03:09:26.615Z,3.90
2019-02-21T03:11:57.032Z,3.90
2019-02-21T03:14:28.033Z,4.00
2019-02-21T03:16:58.431Z,4.00
2019-02-21T03:19:29.618Z,4.00
2019-02-21T03:22:00.373Z,4.00
2019-02-21T03:24:31.193Z,4.10
2019-02-21T03:27:01.236Z,4.20
2019-02-21T03:29:31.483Z,4.20
2019-02-21T03:32:02.162Z,4.20
2019-02-21T03:34:33.665Z,4.20
2019-02-21T03:37:04.238Z,4.20
2019-02-21T03:39:35.752Z,4.20
2019-02-21T03:42:06.970Z,4.20
2019-02-21T03:44:37.709Z,4.20
2019-02-21T03:47:08.405Z,4.30
2019-02-21T03:49:39.548Z,4.30
2019-02-21T03:52:10.639Z,4.30
2019-02-21T03:54:42.072Z,4.30
2019-02-21T03:57:13.071Z,4.30
2019-02-21T03:59:43.929Z,4.30
2019-02-21T04:02:15.061Z,4.30
2019-02-21T04:04:45.950Z,4.30
2019-02-21T04:07:17.513Z,4.30
2019-02-21T04:09:48.225Z,4.30
2019-02-21T04:12:18.785Z,4.30
2019-02-21T04:14:49.291Z,4.30
2019-02-21T04:17:19.635Z,4.20
2019-02-21T04:19:51.211Z,4.20
2019-02-21T04:22:22.149Z,4.20
2019-02-21T04:24:52.034Z,4.20
2019-02-21T04:27:22.892Z,4.20
2019-02-21T04:29:53.297Z,4.20
2019-02-21T04:32:23.816Z,4.20
2019-02-21T04:34:54.277Z,4.20
2019-02-21T04:37:25.402Z,4.20
2019-02-21T04:39:56.187Z,4.20
2019-02-21T04:42:27.436Z,4.20
2019-02-21T04:44:58.015Z,4.20
2019-02-21T04:47:29.139Z,4.20
2019-02-21T04:49:59.607Z,4.20
2019-02-21T04:52:30.148Z,4.20
2019-02-21T04:55:00.748Z,4.20
2019-02-21T04:57:32.506Z,4.10
2019-02-21T05:00:03.131Z,4.10
2019-02-21T05:02:33.449Z,4.10
2019-02-21T05:05:04.728Z,4.00
2019-02-21T05:07:34.698Z,4.00
2019-02-21T05:10:06.092Z,4.10
2019-02-21T05:12:36.900Z,4.00
2019-02-21T05:15:07.532Z,4.10
2019-02-21T05:17:38.553Z,4.10
2019-02-21T05:20:09.135Z,4.10
2019-02-21T05:22:39.101Z,4.10
2019-02-21T05:25:09.431Z,4.10
2019-02-21T05:27:40.565Z,4.10
2019-02-21T05:30:12.703Z,4.20
2019-02-21T05:32:44.256Z,4.20
2019-02-21T05:35:19.576Z,4.30
2019-02-21T05:38:07.798Z,4.30
2019-02-21T05:40:56.089Z,4.30
2019-02-21T05:43:31.762Z,4.30
2019-02-21T05:46:15.111Z,4.30
2019-02-21T05:48:47.190Z,4.40
2019-02-21T05:51:19.295Z,4.40
2019-02-21T05:53:51.505Z,4.40
2019-02-21T05:56:39.829Z,4.40
2019-02-21T05:59:14.825Z,4.40
2019-02-21T06:02:05.216Z,4.50
2019-02-21T06:04:40.472Z,4.50
2019-02-21T06:07:30.437Z,4.50
2019-02-21T06:10:02.089Z,4.60
2019-02-21T06:12:48.457Z,4.60
2019-02-21T06:15:32.690Z,4.60
2019-02-21T06:18:04.555Z,4.60
2019-02-21T06:20:51.681Z,4.70
2019-02-21T06:23:36.379Z,4.70
2019-02-21T06:26:08.117Z,4.70
2019-02-21T06:28:56.864Z,4.70
2019-02-21T06:31:27.608Z,4.70
2019-02-21T06:33:57.887Z,4.70
2019-02-21T06:36:28.076Z,4.80
2019-02-21T06:38:59.272Z,4.80
2019-02-21T06:41:30.005Z,4.80
2019-02-21T06:44:01.354Z,4.80
2019-02-21T06:46:31.174Z,4.80
2019-02-21T06:49:01.478Z,4.90
2019-02-21T06:51:31.812Z,4.90
2019-02-21T06:54:02.280Z,4.90
2019-02-21T06:56:33.358Z,4.90
2019-02-21T06:59:04.743Z,5.00
2019-02-21T07:01:34.433Z,5.00
2019-02-21T07:04:04.535Z,5.00
2019-02-21T07:06:35.923Z,5.00
2019-02-21T07:09:06.178Z,5.00
2019-02-21T07:11:36.919Z,5.10
2019-02-21T07:14:08.171Z,5.10
2019-02-21T07:16:38.455Z,5.10
2019-02-21T07:19:10.803Z,5.20
2019-02-21T07:21:41.823Z,5.20
2019-02-21T07:24:11.923Z,5.20
2019-02-21T07:26:42.830Z,5.20
2019-02-21T07:29:12.952Z,5.30
2019-02-21T07:31:43.588Z,5.30
2019-02-21T07:34:13.934Z,5.40
2019-02-21T07:36:44.956Z,5.40
2019-02-21T07:39:18.524Z,5.50
2019-02-21T07:41:47.092Z,5.50
2019-02-21T07:44:18.300Z,5.60
2019-02-21T07:46:48.993Z,5.70
2019-02-21T07:49:19.198Z,5.70
2019-02-21T07:51:49.433Z,5.70
2019-02-21T07:54:19.659Z,5.80
2019-02-21T07:56:51.004Z,5.80
2019-02-21T07:59:23.431Z,5.90
2019-02-21T08:01:53.853Z,5.90
2019-02-21T08:04:23.808Z,5.90
2019-02-21T08:06:55.701Z,5.90
2019-02-21T08:09:27.725Z,6.00
2019-02-21T08:11:57.306Z,6.00
2019-02-21T08:14:28.285Z,6.10
2019-02-21T08:16:58.036Z,6.10
2019-02-21T08:19:28.798Z,6.10
2019-02-21T08:22:00.125Z,6.20
2019-02-21T08:24:30.409Z,6.30
2019-02-21T08:27:00.659Z,6.30
2019-02-21T08:29:30.930Z,6.40
2019-02-21T08:32:01.950Z,6.40
2019-02-21T08:34:34.321Z,6.50
2019-02-21T08:37:05.170Z,6.50
2019-02-21T08:39:35.806Z,6.60
2019-02-21T08:42:06.484Z,6.60
2019-02-21T08:44:37.295Z,6.70
2019-02-21T08:47:07.839Z,6.70
2019-02-21T08:49:38.027Z,6.80
2019-02-21T08:52:08.346Z,6.90
2019-02-21T08:54:38.360Z,6.90
2019-02-21T08:57:09.799Z,7.00
2019-02-21T08:59:42.272Z,7.00
2019-02-21T09:02:12.656Z,7.10
2019-02-21T09:04:43.034Z,7.10
2019-02-21T09:07:13.888Z,7.20
2019-02-21T09:09:44.101Z,7.20
2019-02-21T09:12:14.406Z,7.40
2019-02-21T09:14:45.395Z,7.40
2019-02-21T09:17:16.528Z,7.50
2019-02-21T09:19:48.240Z,7.60
2019-02-21T09:22:18.495Z,7.70
2019-02-21T09:24:50.656Z,7.70
2019-02-21T09:27:20.974Z,7.70
2019-02-21T09:29:51.830Z,7.70
2019-02-21T09:32:22.507Z,7.80
2019-02-21T09:34:52.801Z,7.80
2019-02-21T09:37:24.052Z,7.80
2019-02-21T09:39:54.155Z,7.80
2019-02-21T09:42:24.274Z,7.90
2019-02-21T09:44:54.614Z,7.90
2019-02-21T09:47:25.820Z,8.00
2019-02-21T09:49:56.729Z,8.00
2019-02-21T09:52:27.231Z,8.20
2019-02-21T09:54:56.840Z,8.30
2019-02-21T09:57:27.214Z,8.40
2019-02-21T09:59:57.432Z,8.60
2019-02-21T10:02:27.466Z,8.70
2019-02-21T10:05:05.116Z,8.70
2019-02-21T10:07:30.446Z,8.70
2019-02-21T10:10:00.986Z,8.80
2019-02-21T10:12:31.603Z,8.80
2019-02-21T10:15:01.379Z,8.80
2019-02-21T10:17:31.615Z,8.70
2019-02-21T10:20:04.134Z,8.70
2019-02-21T10:22:34.976Z,8.70
2019-02-21T10:25:07.109Z,8.80
2019-02-21T10:27:37.062Z,8.80
2019-02-21T10:30:09.845Z,8.90
2019-02-21T10:32:40.448Z,9.00
2019-02-21T10:35:11.100Z,9.10
2019-02-21T10:37:41.786Z,9.10
2019-02-21T10:40:14.289Z,9.20
2019-02-21T10:42:45.519Z,9.30
2019-02-21T10:45:21.507Z,9.40
2019-02-21T10:47:52.184Z,9.50
2019-02-21T10:50:22.837Z,9.60
2019-02-21T10:52:54.057Z,9.70
2019-02-21T10:55:24.594Z,9.70
2019-02-21T10:57:55.786Z,9.80
2019-02-21T11:00:31.930Z,9.90
2019-02-21T11:03:02.187Z,10.00
2019-02-21T11:05:32.538Z,10.00
2019-02-21T11:08:04.134Z,10.10
2019-02-21T11:10:34.331Z,10.20
2019-02-21T11:13:04.736Z,10.20
2019-02-21T11:15:35.273Z,10.30
2019-02-21T11:18:05.121Z,10.30
2019-02-21T11:20:35.401Z,10.40
2019-02-21T11:23:06.663Z,10.50
2019-02-21T11:25:37.815Z,10.60
2019-02-21T11:28:09.474Z,10.60
2019-02-21T11:30:41.768Z,10.70
2019-02-21T11:33:12.392Z,10.70
2019-02-21T11:35:43.628Z,10.70
2019-02-21T11:38:14.975Z,10.70
2019-02-21T11:40:45.643Z,10.70
2019-02-21T11:43:16.931Z,10.70
2019-02-21T11:45:54.309Z,10.70
2019-02-21T11:48:19.457Z,10.60
2019-02-21T11:50:50.625Z,10.60
2019-02-21T11:53:21.945Z,10.60
2019-02-21T11:55:53.134Z,10.70
2019-02-21T11:58:24.969Z,10.70
2019-02-21T12:00:55.384Z,10.80
2019-02-21T12:03:25.688Z,10.80
2019-02-21T12:05:56.420Z,10.90
2019-02-21T12:08:26.884Z,11.00
2019-02-21T12:10:58.124Z,11.00
2019-02-21T12:13:30.424Z,11.10
2019-02-21T12:16:00.687Z,11.10
2019-02-21T12:18:31.190Z,11.20
2019-02-21T12:21:01.880Z,11.40
2019-02-21T12:23:32.922Z,11.50
2019-02-21T12:26:04.223Z,11.60
2019-02-21T12:28:35.218Z,11.70
2019-02-21T12:31:05.209Z,11.70
2019-02-21T12:33:35.434Z,11.70
2019-02-21T12:36:06.454Z,11.70
2019-02-21T12:38:36.977Z,11.80
2019-02-21T12:41:07.355Z,11.90
2019-02-21T12:43:38.336Z,12.00
2019-02-21T12:46:09.543Z,12.00
2019-02-21T12:48:40.534Z,12.10
2019-02-21T12:51:11.343Z,12.10
2019-02-21T12:53:41.261Z,12.20
2019-02-21T12:56:12.488Z,12.20
2019-02-21T12:58:45.098Z,12.30
2019-02-21T13:01:17.054Z,12.40
2019-02-21T13:03:47.542Z,12.50
2019-02-21T13:06:19.323Z,12.50
2019-02-21T13:08:49.886Z,12.50
2019-02-21T13:11:21.173Z,12.50
2019-02-21T13:13:52.650Z,12.50
2019-02-21T13:16:22.547Z,12.50
2019-02-21T13:18:53.523Z,12.50
2019-02-21T13:21:24.329Z,12.50
2019-02-21T13:23:55.904Z,12.70
2019-02-21T13:26:25.947Z,12.80
2019-02-21T13:28:56.406Z,13.00
2019-02-21T13:31:26.539Z,13.10
2019-02-21T13:33:55.669Z,13.30
2019-02-21T13:36:26.278Z,13.40
2019-02-21T13:38:56.381Z,13.50
2019-02-21T13:41:26.895Z,13.60
2019-02-21T13:43:58.469Z,13.60
2019-02-21T13:46:36.823Z,13.70
2019-02-21T13:49:00.366Z,13.80
2019-02-21T13:51:32.172Z,13.90
2019-02-21T13:54:02.438Z,13.90
2019-02-21T13:56:32.679Z,14.00
2019-02-21T13:59:03.315Z,13.90
2019-02-21T14:01:34.030Z,14.00
2019-02-21T14:04:04.866Z,14.00
2019-02-21T14:06:35.565Z,14.00
2019-02-21T14:09:07.728Z,14.00
2019-02-21T14:11:37.873Z,14.00
2019-02-21T14:14:08.435Z,14.10
2019-02-21T14:16:46.549Z,14.10
2019-02-21T14:19:11.577Z,14.10
2019-02-21T14:21:43.773Z,14.10
2019-02-21T14:24:14.489Z,14.10
2019-02-21T14:26:44.399Z,14.20
2019-02-21T14:29:15.186Z,14.30
2019-02-21T14:31:46.891Z,14.40
2019-02-21T14:34:17.511Z,14.50
2019-02-21T14:36:48.715Z,14.60
2019-02-21T14:39:19.334Z,14.80
2019-02-21T14:41:49.575Z,14.80
2019-02-21T14:44:20.259Z,14.80
2019-02-21T14:46:50.349Z,14.80
2019-02-21T14:49:20.431Z,14.80
2019-02-21T14:51:51.424Z,15.00
2019-02-21T14:54:21.743Z,15.10
2019-02-21T14:56:52.221Z,15.10
2019-02-21T14:59:22.770Z,15.20
2019-02-21T15:01:54.624Z,15.20
2019-02-21T15:04:25.598Z,15.20
2019-02-21T15:06:56.966Z,15.20
2019-02-21T15:09:27.592Z,15.20
2019-02-21T15:11:58.687Z,15.30
2019-02-21T15:14:29.933Z,15.30
2019-02-21T15:17:03.615Z,15.30
2019-02-21T15:19:33.745Z,15.20
2019-02-21T15:22:04.589Z,15.20
2019-02-21T15:24:34.772Z,15.10
2019-02-21T15:27:08.793Z,15.00
2019-02-21T15:29:41.101Z,15.00
2019-02-21T15:32:11.306Z,14.90
2019-02-21T15:34:42.505Z,14.80
2019-02-21T15:37:13.066Z,14.80
2019-02-21T15:39:45.008Z,14.70
2019-02-21T15:42:15.248Z,14.70
2019-02-21T15:44:46.581Z,14.60
2019-02-21T15:47:16.986Z,14.50
2019-02-21T15:49:47.215Z,14.50
2019-02-21T15:52:22.312Z,14.30
2019-02-21T15:54:50.061Z,14.30
2019-02-21T15:57:21.529Z,14.30
2019-02-21T15:59:53.304Z,14.20
2019-02-21T16:02:23.973Z,14.20
2019-02-21T16:04:54.759Z,14.10
2019-02-21T16:07:26.471Z,14.00
2019-02-21T16:09:56.944Z,14.00
2019-02-21T16:12:27.670Z,14.00
2019-02-21T16:14:58.717Z,13.90
2019-02-21T16:17:29.334Z,13.90
2019-02-21T16:19:59.798Z,13.80
2019-02-21T16:22:32.013Z,13.80
2019-02-21T16:25:02.703Z,13.80
2019-02-21T16:27:33.580Z,13.70
2019-02-21T16:30:03.782Z,13.60
2019-02-21T16:32:34.825Z,13.60
2019-02-21T16:35:06.086Z,13.60
2019-02-21T16:37:36.613Z,13.60
2019-02-21T16:40:09.508Z,13.50
2019-02-21T16:42:40.894Z,13.50
2019-02-21T16:45:13.259Z,13.40
2019-02-21T16:47:43.849Z,13.40
2019-02-21T16:50:16.268Z,13.40
2019-02-21T16:52:47.666Z,13.40
2019-02-21T16:55:22.809Z,13.30
2019-02-21T16:57:52.957Z,13.20
2019-02-21T17:00:38.733Z,13.20
2019-02-21T17:02:57.975Z,13.20
2019-02-21T17:05:28.550Z,13.10
2019-02-21T17:07:59.598Z,13.00
2019-02-21T17:10:29.785Z,13.00
2019-02-21T17:13:00.203Z,13.00
2019-02-21T17:15:30.493Z,12.90
2019-02-21T17:18:03.664Z,12.90
2019-02-21T17:20:32.701Z,12.90
2019-02-21T17:23:04.375Z,12.80
2019-02-21T17:25:35.065Z,12.70
2019-02-21T17:28:05.554Z,12.70
2019-02-21T17:30:37.411Z,12.70
2019-02-21T17:33:08.168Z,12.60
2019-02-21T17:35:38.930Z,12.60
2019-02-21T17:38:09.925Z,12.50
2019-02-21T17:40:40.600Z,12.50
2019-02-21T17:43:10.834Z,12.40
2019-02-21T17:45:41.905Z,12.40
2019-02-21T17:48:12.795Z,12.30
2019-02-21T17:50:43.689Z,12.30
2019-02-21T17:53:13.921Z,12.20
2019-02-21T17:55:44.700Z,12.20
2019-02-21T17:58:17.279Z,12.10
2019-02-21T18:00:49.055Z,12.10
2019-02-21T18:03:20.294Z,12.10
2019-02-21T18:05:49.941Z,12.00
2019-02-21T18:08:21.482Z,12.00
2019-02-21T18:10:52.057Z,12.00
2019-02-21T18:13:22.121Z,11.90
2019-02-21T18:15:52.683Z,11.90
2019-02-21T18:18:23.766Z,11.90
2019-02-21T18:20:54.960Z,11.90
2019-02-21T18:23:25.684Z,11.90
2019-02-21T18:25:58.538Z,11.80
2019-02-21T18:28:31.014Z,11.80
2019-02-21T18:31:01.247Z,11.80
2019-02-21T18:33:31.914Z,11.80
2019-02-21T18:36:02.887Z,11.80
2019-02-21T18:38:32.976Z,11.70
2019-02-21T18:41:03.510Z,11.70
2019-02-21T18:43:34.215Z,11.70
2019-02-21T18:46:05.016Z,11.70
2019-02-21T18:48:35.905Z,11.70
2019-02-21T18:51:06.274Z,11.70
2019-02-21T18:53:38.342Z,11.70
2019-02-21T18:56:08.978Z,11.70
2019-02-21T18:58:40.363Z,11.70
2019-02-21T19:01:10.294Z,11.70
2019-02-21T19:03:39.476Z,11.70
2019-02-21T19:06:09.533Z,11.70
2019-02-21T19:08:38.675Z,11.70
2019-02-21T19:11:08.479Z,11.70
2019-02-21T19:13:38.814Z,11.70
2019-02-21T19:16:08.140Z,11.70
2019-02-21T19:18:37.361Z,11.60
2019-02-21T19:21:07.244Z,11.60
2019-02-21T19:23:36.996Z,11.60
2019-02-21T19:26:07.229Z,11.60
2019-02-21T19:28:37.040Z,11.50
2019-02-21T19:31:09.506Z,11.50
2019-02-21T19:33:40.147Z,11.50
2019-02-21T19:36:09.913Z,11.40
2019-02-21T19:38:39.398Z,11.40
2019-02-21T19:41:08.845Z,11.40
2019-02-21T19:43:39.361Z,11.40
2019-02-21T19:46:08.927Z,11.40
2019-02-21T19:48:39.649Z,11.30
2019-02-21T19:51:10.784Z,11.30
2019-02-21T19:53:40.581Z,11.30
2019-02-21T19:56:10.364Z,11.30
2019-02-21T19:58:39.990Z,11.30
2019-02-21T20:01:09.407Z,11.30
2019-02-21T20:03:39.400Z,11.30
2019-02-21T20:06:09.488Z,11.30
2019-02-21T20:08:38.633Z,11.30
2019-02-21T20:11:08.142Z,11.30
2019-02-21T20:13:39.127Z,11.30
2019-02-21T20:16:10.994Z,11.30
2019-02-21T20:18:41.112Z,11.30
2019-02-21T20:21:10.326Z,11.30
2019-02-21T20:23:39.884Z,11.30
2019-02-21T20:26:17.917Z,11.30
2019-02-21T20:28:41.032Z,11.20
2019-02-21T20:31:10.670Z,11.20
2019-02-21T20:33:40.961Z,11.20
2019-02-21T20:36:10.813Z,11.20
2019-02-21T20:38:40.397Z,11.10
2019-02-21T20:41:10.636Z,11.10
2019-02-21T20:43:40.245Z,11.10
2019-02-21T20:46:08.938Z,11.10
2019-02-21T20:48:39.531Z,11.10
2019-02-21T20:51:09.404Z,11.10
2019-02-21T20:53:38.967Z,11.10
2019-02-21T20:56:09.416Z,11.10
2019-02-21T20:58:38.924Z,11.10
2019-02-21T21:01:12.355Z,11.20
2019-02-21T21:03:40.903Z,11.10
2019-02-21T21:06:10.482Z,11.20
2019-02-21T21:08:44.308Z,11.10
2019-02-21T21:11:12.027Z,11.20
2019-02-21T21:13:41.155Z,11.20
2019-02-21T21:16:11.117Z,11.10
2019-02-21T21:18:40.657Z,11.20
2019-02-21T21:21:10.157Z,11.20
2019-02-21T21:23:39.895Z,11.20
2019-02-21T21:26:09.748Z,11.20
2019-02-21T21:28:39.335Z,11.20
2019-02-21T21:31:09.541Z,11.20
2019-02-21T21:33:38.935Z,11.20
2019-02-21T21:36:09.426Z,11.20
2019-02-21T21:38:38.911Z,11.20
2019-02-21T21:41:08.154Z,11.20
2019-02-21T21:43:37.246Z,11.20
2019-02-21T21:46:06.700Z,11.10
2019-02-21T21:48:36.745Z,11.10
2019-02-21T21:51:07.457Z,11.10
2019-02-21T21:53:37.056Z,11.10
2019-02-21T21:56:06.773Z,11.10
2019-02-21T21:58:36.986Z,11.10
2019-02-21T22:01:07.313Z,11.10
2019-02-21T22:03:37.371Z,11.10
2019-02-21T22:06:06.612Z,11.10
2019-02-21T22:08:36.490Z,11.10
2019-02-21T22:11:07.082Z,11.10
2019-02-21T22:13:36.618Z,11.10
2019-02-21T22:16:06.040Z,11.20
2019-02-21T22:18:35.809Z,11.10
2019-02-21T22:21:05.799Z,11.20
2019-02-21T22:23:34.875Z,11.20
2019-02-21T22:26:04.237Z,11.20
2019-02-21T22:28:34.127Z,11.20
2019-02-21T22:31:03.855Z,11.20
2019-02-21T22:33:36.344Z,11.20
2019-02-21T22:36:05.540Z,11.20
2019-02-21T22:38:35.459Z,11.10
2019-02-21T22:41:05.291Z,11.10
2019-02-21T22:43:34.480Z,11.10
2019-02-21T22:46:03.878Z,11.10
2019-02-21T22:48:33.395Z,11.10
2019-02-21T22:51:02.516Z,11.10
2019-02-21T22:53:33.735Z,11.00
2019-02-21T22:56:03.384Z,11.00
2019-02-21T22:58:32.811Z,11.00
2019-02-21T23:01:05.098Z,11.00
2019-02-21T23:03:40.359Z,10.90
2019-02-21T23:06:33.504Z,10.90
2019-02-21T23:09:03.309Z,10.90
2019-02-21T23:11:32.644Z,10.90
2019-02-21T23:14:02.600Z,10.80
2019-02-21T23:16:32.152Z,10.80
2019-02-21T23:19:01.355Z,10.80
2019-02-21T23:21:30.845Z,10.80
2019-02-21T23:24:01.057Z,10.80
2019-02-21T23:26:30.292Z,10.70
2019-02-21T23:28:59.899Z,10.70
2019-02-21T23:31:29.717Z,10.70
2019-02-21T23:34:06.629Z,10.60
2019-02-21T23:36:36.478Z,10.60
2019-02-21T23:39:07.899Z,10.50
2019-02-21T23:41:37.331Z,10.50
2019-02-21T23:44:07.792Z,10.50
2019-02-21T23:46:37.701Z,10.50
2019-02-21T23:49:07.414Z,10.50
2019-02-21T23:51:37.826Z,10.40
2019-02-21T23:54:07.769Z,10.40
2019-02-21T23:56:36.863Z,10.40
2019-02-21T23:59:06.469Z,10.50
